createdAt,value
2023-01-05T00:01:43.730Z,75.83
2023-01-05T00:04:10.720Z,74.88
2023-01-05T00:06:37.922Z,75.02
2023-01-05T00:09:05.922Z,82.08
2023-01-05T00:11:59.524Z,76.83
2023-01-05T00:14:48.187Z,75.49
2023-01-05T00:17:36.806Z,71.70
2023-01-05T00:20:25.922Z,78.23
2023-01-05T00:22:54.293Z,74.31
2023-01-05T00:25:22.518Z,76.78
2023-01-05T00:27:51.930Z,75.71
2023-01-05T00:30:37.747Z,77.78
2023-01-05T00:33:04.606Z,76.92
2023-01-05T00:35:31.479Z,77.18
2023-01-05T00:37:58.388Z,78.58
2023-01-05T00:40:25.266Z,80.50
2023-01-05T00:42:52.166Z,79.28
2023-01-05T00:45:19.619Z,77.17
2023-01-05T00:47:48.827Z,78.24
2023-01-05T00:50:17.277Z,79.15
2023-01-05T00:52:44.666Z,79.37
2023-01-05T00:55:11.637Z,80.27
2023-01-05T00:57:39.088Z,80.49
2023-01-05T01:00:11.391Z,85.77
2023-01-05T01:02:38.258Z,92.58
2023-01-05T01:05:05.331Z,94.76
2023-01-05T01:07:32.232Z,97.99
2023-01-05T01:09:59.122Z,96.71
2023-01-05T01:12:25.975Z,95.81
2023-01-05T01:14:52.625Z,94.11
2023-01-05T01:17:19.526Z,91.20
2023-01-05T01:19:47.415Z,89.17
2023-01-05T01:22:14.902Z,86.02
2023-01-05T01:24:41.916Z,83.46
2023-01-05T01:27:08.773Z,82.44
2023-01-05T01:29:35.723Z,79.48
2023-01-05T01:32:02.642Z,78.65
2023-01-05T01:34:29.650Z,78.11
2023-01-05T01:36:56.917Z,79.60
2023-01-05T01:39:23.906Z,79.62
2023-01-05T01:42:04.937Z,85.64
2023-01-05T01:44:51.420Z,87.57
2023-01-05T01:47:28.667Z,90.23
2023-01-05T01:49:56.178Z,86.12
2023-01-05T01:52:24.415Z,84.61
2023-01-05T01:54:52.067Z,84.44
2023-01-05T01:57:19.237Z,84.87
2023-01-05T01:59:46.268Z,88.04
2023-01-05T02:02:13.633Z,92.27
2023-01-05T02:04:40.953Z,92.56
2023-01-05T02:07:08.984Z,92.48
2023-01-05T02:09:35.880Z,93.51
2023-01-05T02:12:53.147Z,92.05
2023-01-05T02:15:36.323Z,91.19
2023-01-05T02:18:31.707Z,91.43
2023-01-05T02:21:16.754Z,93.26
2023-01-05T02:24:13.296Z,88.86
2023-01-05T02:27:03.369Z,86.17
2023-01-05T02:29:40.282Z,84.15
2023-01-05T02:32:07.073Z,84.08
2023-01-05T02:34:36.471Z,85.33
2023-01-05T02:37:15.470Z,87.00
2023-01-05T02:39:57.961Z,91.00
2023-01-05T02:42:26.458Z,87.96
2023-01-05T02:44:53.335Z,91.52
2023-01-05T02:47:26.176Z,91.61
2023-01-05T02:49:57.810Z,93.19
2023-01-05T02:52:25.558Z,93.92
2023-01-05T02:54:59.022Z,95.25
2023-01-05T02:57:50.412Z,93.13
2023-01-05T03:00:29.682Z,93.15
2023-01-05T03:03:02.279Z,92.90
2023-01-05T03:05:33.704Z,92.94
2023-01-05T03:08:11.245Z,92.03
2023-01-05T03:11:12.714Z,90.11
2023-01-05T03:13:41.951Z,93.46
2023-01-05T03:16:11.026Z,94.69
2023-01-05T03:18:57.078Z,94.14
2023-01-05T03:21:27.645Z,94.32
2023-01-05T03:24:15.415Z,93.08
2023-01-05T03:27:01.538Z,95.08
2023-01-05T03:29:47.072Z,95.61
2023-01-05T03:32:41.331Z,94.75
2023-01-05T03:35:34.753Z,94.40
2023-01-05T03:38:25.949Z,94.30
2023-01-05T03:40:54.456Z,93.80
2023-01-05T03:43:21.812Z,94.63
2023-01-05T03:45:55.339Z,96.29
2023-01-05T03:48:23.416Z,96.77
2023-01-05T03:50:50.380Z,97.04
2023-01-05T03:53:17.398Z,96.33
2023-01-05T03:55:44.273Z,96.95
2023-01-05T03:58:10.900Z,98.57
2023-01-05T04:00:39.748Z,97.69
2023-01-05T04:03:06.819Z,97.80
2023-01-05T04:05:33.764Z,100.00
2023-01-05T04:08:00.483Z,100.00
2023-01-05T04:10:28.389Z,98.88
2023-01-05T04:12:55.300Z,97.36
2023-01-05T04:15:22.129Z,97.27
2023-01-05T04:17:48.798Z,95.82
2023-01-05T04:20:17.925Z,93.03
2023-01-05T04:22:44.785Z,94.45
2023-01-05T04:25:11.468Z,91.80
2023-01-05T04:27:38.324Z,88.73
2023-01-05T04:30:05.977Z,88.07
2023-01-05T04:32:32.907Z,87.15
2023-01-05T04:35:03.860Z,87.27
2023-01-05T04:37:40.089Z,86.83
2023-01-05T04:40:09.375Z,86.73
2023-01-05T04:42:36.198Z,81.01
2023-01-05T04:45:02.860Z,84.22
2023-01-05T04:47:29.712Z,84.88
2023-01-05T04:50:07.037Z,85.83
2023-01-05T04:52:33.902Z,84.52
2023-01-05T04:55:00.797Z,82.15
2023-01-05T04:57:27.826Z,80.87
2023-01-05T04:59:57.778Z,81.95
2023-01-05T05:02:24.763Z,78.18
2023-01-05T05:04:51.748Z,79.89
2023-01-05T05:07:18.750Z,76.31
2023-01-05T05:09:52.579Z,80.58
2023-01-05T05:12:20.777Z,80.41
2023-01-05T05:14:48.336Z,75.87
2023-01-05T05:17:16.683Z,76.97
2023-01-05T05:19:43.842Z,77.66
2023-01-05T05:22:11.405Z,75.00
2023-01-05T05:24:38.280Z,70.92
2023-01-05T05:27:05.117Z,72.72
2023-01-05T05:29:31.967Z,70.83
2023-01-05T05:31:58.800Z,71.23
2023-01-05T05:34:25.640Z,72.76
2023-01-05T05:36:52.528Z,71.53
2023-01-05T05:39:19.510Z,69.87
2023-01-05T05:41:49.629Z,73.16
2023-01-05T05:44:16.475Z,75.09
2023-01-05T05:46:43.452Z,72.60
2023-01-05T05:49:10.557Z,74.45
2023-01-05T05:51:37.469Z,72.46
2023-01-05T05:54:04.503Z,72.72
2023-01-05T05:56:31.400Z,75.59
2023-01-05T05:59:01.631Z,75.03
2023-01-05T06:01:29.396Z,77.53
2023-01-05T06:03:56.452Z,74.95
2023-01-05T06:06:23.315Z,71.53
2023-01-05T06:08:51.189Z,71.85
2023-01-05T06:11:19.070Z,74.26
2023-01-05T06:13:46.133Z,71.89
2023-01-05T06:16:13.005Z,73.69
2023-01-05T06:18:39.870Z,77.04
2023-01-05T06:21:06.895Z,77.60
2023-01-05T06:23:33.764Z,77.65
2023-01-05T06:26:00.447Z,76.21
2023-01-05T06:28:27.343Z,75.38
2023-01-05T06:30:55.210Z,75.91
2023-01-05T06:33:22.084Z,73.96
2023-01-05T06:35:48.956Z,73.46
2023-01-05T06:38:16.698Z,74.35
2023-01-05T06:40:44.807Z,74.29
2023-01-05T06:43:12.436Z,74.92
2023-01-05T06:45:39.309Z,78.42
2023-01-05T06:48:06.327Z,82.47
2023-01-05T06:50:36.313Z,81.38
2023-01-05T06:53:03.328Z,80.67
2023-01-05T06:55:30.483Z,80.72
2023-01-05T06:58:00.951Z,80.08
2023-01-05T07:00:29.026Z,80.99
2023-01-05T07:02:55.967Z,81.87
2023-01-05T07:05:24.757Z,82.21
2023-01-05T07:07:51.878Z,80.47
2023-01-05T07:10:18.952Z,80.15
2023-01-05T07:12:45.858Z,78.52
2023-01-05T07:15:12.830Z,76.95
2023-01-05T07:17:39.730Z,77.57
2023-01-05T07:20:08.097Z,78.97
2023-01-05T07:22:35.159Z,82.47
2023-01-05T07:25:02.121Z,81.46
2023-01-05T07:27:28.975Z,82.63
2023-01-05T07:29:55.711Z,83.61
2023-01-05T07:32:22.572Z,86.98
2023-01-05T07:34:55.240Z,87.81
2023-01-05T07:37:24.990Z,88.04
2023-01-05T07:39:52.453Z,86.34
2023-01-05T07:42:19.476Z,89.73
2023-01-05T07:44:46.299Z,89.47
2023-01-05T07:47:12.940Z,88.78
2023-01-05T07:49:39.796Z,87.44
2023-01-05T07:52:06.484Z,86.74
2023-01-05T07:54:33.350Z,84.08
2023-01-05T07:57:00.504Z,85.59
2023-01-05T07:59:27.468Z,87.35
2023-01-05T08:01:54.410Z,86.53
2023-01-05T08:04:21.411Z,87.30
2023-01-05T08:06:48.332Z,87.24
2023-01-05T08:09:33.488Z,86.86
2023-01-05T08:12:00.340Z,85.53
2023-01-05T08:14:27.029Z,81.50
2023-01-05T08:16:54.029Z,81.33
2023-01-05T08:19:20.955Z,83.66
2023-01-05T08:21:47.658Z,84.75
2023-01-05T08:24:14.538Z,85.09
2023-01-05T08:26:41.485Z,83.80
2023-01-05T08:29:08.512Z,84.61
2023-01-05T08:31:37.762Z,85.95
2023-01-05T08:34:05.365Z,89.31
2023-01-05T08:36:33.108Z,88.87
2023-01-05T08:39:01.801Z,88.24
2023-01-05T08:41:31.952Z,88.04
2023-01-05T08:44:04.115Z,87.51
2023-01-05T08:46:33.517Z,88.27
2023-01-05T08:49:02.023Z,89.70
2023-01-05T08:51:29.619Z,80.40
2023-01-05T08:53:56.582Z,77.70
2023-01-05T08:56:28.793Z,82.36
2023-01-05T08:58:59.416Z,86.09
2023-01-05T09:01:27.025Z,89.13
2023-01-05T09:03:54.075Z,87.07
2023-01-05T09:06:20.968Z,84.96
2023-01-05T09:08:48.772Z,82.87
2023-01-05T09:11:26.040Z,81.77
2023-01-05T09:13:59.858Z,81.71
2023-01-05T09:19:16.691Z,77.81
2023-01-05T09:21:44.863Z,80.70
2023-01-05T09:24:15.303Z,79.66
2023-01-05T09:26:42.844Z,81.37
2023-01-05T09:29:11.012Z,85.05
2023-01-05T09:31:40.666Z,83.24
2023-01-05T09:34:07.586Z,83.96
2023-01-05T09:36:34.470Z,81.90
2023-01-05T09:39:01.440Z,82.53
2023-01-05T09:41:33.453Z,80.93
2023-01-05T09:44:08.541Z,81.78
2023-01-05T09:46:39.272Z,79.82
2023-01-05T09:49:08.009Z,76.38
2023-01-05T09:51:36.141Z,76.93
2023-01-05T09:54:03.472Z,74.68
2023-01-05T09:59:45.837Z,79.60
2023-01-05T10:02:28.003Z,80.40
2023-01-05T10:04:55.857Z,81.33
2023-01-05T10:07:25.622Z,81.51
2023-01-05T10:09:53.904Z,81.82
2023-01-05T10:13:06.420Z,81.45
2023-01-05T10:15:42.812Z,80.42
2023-01-05T10:18:12.287Z,83.56
2023-01-05T10:21:02.563Z,82.52
2023-01-05T10:23:40.103Z,82.94
2023-01-05T10:26:25.483Z,85.15
2023-01-05T10:29:00.539Z,85.35
2023-01-05T10:31:48.936Z,85.62
2023-01-05T10:34:54.965Z,83.91
2023-01-05T10:37:35.403Z,83.40
2023-01-05T10:40:05.025Z,84.16
2023-01-05T10:42:46.562Z,82.66
2023-01-05T10:45:18.469Z,83.76
2023-01-05T10:47:46.435Z,81.79
2023-01-05T10:50:36.363Z,81.15
2023-01-05T10:53:24.643Z,80.58
2023-01-05T10:55:57.617Z,79.91
2023-01-05T10:58:29.935Z,81.25
2023-01-05T11:01:03.991Z,82.01
2023-01-05T11:04:14.943Z,82.63
2023-01-05T11:06:25.812Z,80.32
2023-01-05T11:08:52.813Z,78.76
2023-01-05T11:11:25.352Z,77.04
2023-01-05T11:13:59.093Z,79.89
2023-01-05T11:16:34.317Z,82.04
2023-01-05T11:19:04.364Z,82.00
2023-01-05T11:21:38.009Z,81.36
2023-01-05T11:24:05.628Z,81.84
2023-01-05T11:26:39.413Z,81.75
2023-01-05T11:29:09.234Z,80.67
2023-01-05T11:31:58.843Z,78.80
2023-01-05T11:34:48.085Z,76.68
2023-01-05T11:37:27.807Z,75.74
2023-01-05T11:40:00.166Z,73.19
2023-01-05T11:42:27.013Z,70.95
2023-01-05T11:45:22.487Z,71.58
2023-01-05T11:48:05.618Z,70.35
2023-01-05T11:50:42.553Z,69.36
2023-01-05T11:53:22.138Z,70.65
2023-01-05T11:56:01.026Z,67.33
2023-01-05T11:58:33.626Z,64.70
2023-01-05T12:01:42.361Z,64.19
2023-01-05T12:04:25.103Z,64.00
2023-01-05T12:06:55.348Z,62.89
2023-01-05T12:09:39.709Z,62.21
2023-01-05T12:12:15.652Z,61.43
2023-01-05T12:15:04.795Z,60.42
2023-01-05T12:18:08.458Z,65.74
2023-01-05T12:20:54.455Z,73.68
2023-01-05T12:23:30.285Z,77.80
2023-01-05T12:26:45.127Z,73.09
2023-01-05T12:34:01.432Z,74.32
2023-01-05T12:36:24.381Z,79.66
2023-01-05T12:39:01.717Z,85.64
2023-01-05T12:41:46.415Z,85.56
2023-01-05T12:44:32.089Z,87.16
2023-01-05T12:47:30.036Z,84.07
2023-01-05T12:50:21.373Z,86.29
2023-01-05T12:53:14.020Z,86.89
2023-01-05T12:55:45.702Z,85.87
2023-01-05T12:58:22.828Z,84.80
2023-01-05T13:00:59.232Z,86.23
2023-01-05T13:03:32.247Z,86.58
2023-01-05T13:06:08.810Z,86.66
2023-01-05T13:08:43.133Z,84.66
2023-01-05T13:11:26.900Z,85.62
2023-01-05T13:14:06.533Z,85.15
2023-01-05T13:16:39.688Z,87.40
2023-01-05T13:19:13.033Z,90.11
2023-01-05T13:21:42.754Z,86.49
2023-01-05T13:24:13.589Z,88.36
2023-01-05T13:26:40.831Z,86.22
2023-01-05T13:29:25.004Z,87.52
2023-01-05T13:32:06.280Z,84.96
2023-01-05T13:34:38.915Z,82.99
2023-01-05T13:37:24.522Z,78.64
2023-01-05T13:39:51.339Z,76.47
2023-01-05T13:42:33.579Z,70.92
2023-01-05T13:45:37.999Z,70.23
2023-01-05T13:48:13.087Z,73.33
2023-01-05T13:51:06.642Z,75.31
2023-01-05T13:53:37.925Z,80.52
2023-01-05T13:56:17.083Z,80.46
2023-01-05T13:59:03.136Z,80.60
2023-01-05T14:01:43.445Z,80.87
2023-01-05T14:04:22.497Z,81.43
2023-01-05T14:06:52.474Z,83.74
2023-01-05T14:09:46.155Z,85.85
2023-01-05T14:12:15.954Z,87.13
2023-01-05T14:15:06.155Z,87.39
2023-01-05T14:17:55.660Z,88.27
2023-01-05T14:20:49.182Z,91.04
2023-01-05T14:23:31.967Z,87.57
2023-01-05T14:26:00.914Z,83.46
2023-01-05T14:28:30.863Z,86.42
2023-01-05T14:31:37.227Z,87.84
2023-01-05T14:34:10.291Z,87.46
2023-01-05T14:36:39.441Z,84.76
2023-01-05T14:39:28.903Z,82.92
2023-01-05T14:42:00.212Z,80.67
2023-01-05T14:44:44.328Z,80.84
2023-01-05T14:47:11.918Z,76.53
2023-01-05T14:49:55.969Z,77.53
2023-01-05T14:52:55.133Z,78.76
2023-01-05T14:56:03.517Z,82.31
2023-01-05T14:58:36.312Z,84.21
2023-01-05T15:01:17.247Z,85.51
2023-01-05T15:03:57.886Z,88.20
2023-01-05T15:06:39.204Z,84.73
2023-01-05T15:09:23.071Z,84.03
2023-01-05T15:12:40.131Z,86.53
2023-01-05T15:15:31.413Z,84.92
2023-01-05T15:18:08.505Z,85.48
2023-01-05T15:20:51.284Z,79.82
2023-01-05T15:26:37.065Z,75.12
2023-01-05T15:29:31.876Z,78.97
2023-01-05T15:31:58.695Z,76.97
2023-01-05T15:34:37.816Z,70.89
2023-01-05T15:37:31.130Z,68.89
2023-01-05T15:40:07.681Z,71.08
2023-01-05T15:42:46.405Z,73.10
2023-01-05T15:45:23.744Z,75.37
2023-01-05T15:47:50.391Z,73.22
2023-01-05T15:50:40.814Z,65.97
2023-01-05T15:53:33.435Z,65.14
2023-01-05T15:56:00.881Z,64.34
2023-01-05T15:58:30.366Z,65.34
2023-01-05T16:01:11.111Z,66.50
2023-01-05T16:03:39.799Z,68.10
2023-01-05T16:06:16.986Z,66.83
2023-01-05T16:08:46.543Z,64.85
2023-01-05T16:11:17.884Z,66.56
2023-01-05T16:13:52.548Z,69.35
2023-01-05T16:16:50.132Z,72.79
2023-01-05T16:19:24.954Z,72.23
2023-01-05T16:22:05.520Z,71.88
2023-01-05T16:24:43.616Z,72.70
2023-01-05T16:27:13.647Z,72.33
2023-01-05T16:29:45.882Z,73.65
2023-01-05T16:32:54.910Z,72.15
2023-01-05T16:35:22.456Z,71.36
2023-01-05T16:38:11.181Z,73.02
2023-01-05T16:40:46.982Z,69.96
2023-01-05T16:44:16.998Z,69.27
2023-01-05T16:46:49.323Z,73.60
2023-01-05T16:49:22.298Z,69.21
2023-01-05T16:51:49.245Z,69.60
2023-01-05T16:54:38.389Z,68.13
2023-01-05T16:57:35.939Z,67.23
2023-01-05T17:00:04.454Z,68.02
2023-01-05T17:02:35.658Z,63.62
2023-01-05T17:05:02.571Z,65.98
2023-01-05T17:07:29.449Z,67.56
2023-01-05T17:09:56.388Z,66.69
2023-01-05T17:12:23.395Z,64.10
2023-01-05T17:14:50.665Z,63.67
2023-01-05T17:19:54.212Z,62.65
2023-01-05T17:22:21.457Z,63.56
2023-01-05T17:24:48.570Z,60.12
2023-01-05T17:27:15.481Z,61.77
2023-01-05T17:29:42.685Z,60.82
2023-01-05T17:32:11.603Z,61.41
2023-01-05T17:34:39.640Z,61.53
2023-01-05T17:37:07.526Z,61.31
2023-01-05T17:39:34.443Z,62.56
2023-01-05T17:42:22.745Z,64.69
2023-01-05T17:44:52.084Z,60.70
2023-01-05T17:47:19.120Z,60.58
2023-01-05T17:49:46.070Z,60.98
2023-01-05T17:52:14.009Z,61.00
2023-01-05T17:54:41.940Z,62.04
2023-01-05T17:57:12.357Z,59.67
2023-01-05T17:59:39.269Z,59.18
2023-01-05T18:02:06.172Z,59.30
2023-01-05T18:04:33.291Z,59.23
2023-01-05T18:07:01.140Z,57.40
2023-01-05T18:09:28.055Z,57.20
2023-01-05T18:11:55.070Z,58.09
2023-01-05T18:14:21.937Z,58.08
2023-01-05T18:16:48.770Z,57.63
2023-01-05T18:19:15.843Z,58.09
2023-01-05T18:24:10.461Z,56.18
2023-01-05T18:26:37.414Z,58.25
2023-01-05T18:29:04.390Z,57.65
2023-01-05T18:31:31.221Z,56.61
2023-01-05T18:33:58.067Z,57.37
2023-01-05T18:36:24.979Z,57.17
2023-01-05T18:38:51.868Z,57.50
2023-01-05T18:41:24.220Z,57.98
2023-01-05T18:43:51.086Z,56.98
2023-01-05T18:46:18.082Z,59.25
2023-01-05T18:48:49.461Z,58.74
2023-01-05T18:51:16.427Z,58.63
2023-01-05T18:53:43.470Z,58.35
2023-01-05T18:56:13.003Z,57.65
2023-01-05T18:58:39.859Z,58.64
2023-01-05T19:01:12.137Z,59.74
2023-01-05T19:03:39.386Z,59.59
2023-01-05T19:06:08.536Z,60.46
2023-01-05T19:08:35.774Z,60.78
2023-01-05T19:11:13.787Z,58.71
2023-01-05T19:13:41.092Z,59.37
2023-01-05T19:16:08.809Z,60.05
2023-01-05T19:18:35.736Z,61.28
2023-01-05T19:21:02.689Z,61.50
2023-01-05T19:23:30.070Z,61.29
2023-01-05T19:26:04.482Z,61.19
2023-01-05T19:28:32.154Z,61.23
2023-01-05T19:31:15.361Z,61.23
2023-01-05T19:33:42.623Z,61.46
2023-01-05T19:36:16.662Z,61.59
2023-01-05T19:38:44.863Z,60.96
2023-01-05T19:41:18.211Z,60.62
2023-01-05T19:43:48.434Z,62.13
2023-01-05T19:46:16.935Z,60.92
2023-01-05T19:48:44.779Z,60.98
2023-01-05T19:51:15.153Z,61.42
2023-01-05T19:53:43.075Z,61.33
2023-01-05T19:56:14.585Z,60.77
2023-01-05T19:58:42.774Z,61.58
2023-01-05T20:01:14.207Z,62.07
2023-01-05T20:03:43.675Z,61.17
2023-01-05T20:06:16.533Z,61.34
2023-01-05T20:08:43.430Z,61.79
2023-01-05T20:11:14.252Z,61.86
2023-01-05T20:13:41.380Z,61.83
2023-01-05T20:16:10.507Z,61.85
2023-01-05T20:18:38.454Z,61.61
2023-01-05T20:21:07.044Z,61.21
2023-01-05T20:23:39.011Z,63.21
2023-01-05T20:26:11.450Z,64.11
2023-01-05T20:28:38.964Z,62.49
2023-01-05T20:31:14.249Z,62.86
2023-01-05T20:33:41.129Z,62.71
2023-01-05T20:36:08.033Z,63.52
2023-01-05T20:38:34.899Z,61.49
2023-01-05T20:41:01.813Z,61.66
2023-01-05T20:43:28.677Z,61.80
2023-01-05T20:45:55.523Z,62.78
2023-01-05T20:48:22.388Z,61.38
2023-01-05T20:50:49.229Z,61.72
2023-01-05T20:53:15.932Z,62.30
2023-01-05T20:55:46.644Z,62.89
2023-01-05T20:58:13.486Z,62.10
2023-01-05T21:01:09.616Z,62.87
2023-01-05T21:03:28.196Z,63.15
2023-01-05T21:05:55.212Z,61.87
2023-01-05T21:08:22.090Z,62.18
2023-01-05T21:10:54.229Z,63.58
2023-01-05T21:13:31.598Z,62.42
2023-01-05T21:16:04.982Z,62.52
2023-01-05T21:18:33.611Z,63.40
2023-01-05T21:21:00.670Z,63.97
2023-01-05T21:23:27.504Z,62.54
2023-01-05T21:26:06.549Z,63.62
2023-01-05T21:28:36.243Z,63.99
2023-01-05T21:31:05.397Z,61.42
2023-01-05T21:33:32.746Z,64.10
2023-01-05T21:36:00.002Z,61.86
2023-01-05T21:38:26.919Z,62.14
2023-01-05T21:41:14.357Z,63.02
2023-01-05T21:43:41.282Z,63.31
2023-01-05T21:46:10.365Z,63.12
2023-01-05T21:48:37.272Z,61.83
2023-01-05T21:51:23.538Z,62.58
2023-01-05T21:54:09.031Z,64.10
2023-01-05T21:56:40.050Z,64.83
2023-01-05T21:59:10.429Z,62.91
2023-01-05T22:01:38.793Z,63.82
2023-01-05T22:04:05.907Z,61.99
2023-01-05T22:06:33.363Z,62.53
2023-01-05T22:09:00.296Z,60.89
2023-01-05T22:11:27.175Z,62.53
2023-01-05T22:13:54.023Z,63.45
2023-01-05T22:16:20.927Z,63.08
2023-01-05T22:18:48.027Z,60.87
2023-01-05T22:21:15.190Z,62.74
2023-01-05T22:23:42.040Z,62.85
2023-01-05T22:26:11.406Z,62.80
2023-01-05T22:28:41.273Z,62.57
2023-01-05T22:31:12.420Z,62.28
2023-01-05T22:33:46.486Z,62.87
2023-01-05T22:36:14.438Z,62.59
2023-01-05T22:38:43.087Z,61.82
2023-01-05T22:41:12.218Z,61.37
2023-01-05T22:43:40.998Z,61.96
2023-01-05T22:46:12.272Z,62.61
2023-01-05T22:48:41.293Z,62.84
2023-01-05T22:51:13.585Z,62.39
2023-01-05T22:53:41.181Z,60.27
2023-01-05T22:56:09.657Z,61.08
2023-01-05T22:58:36.928Z,61.87
2023-01-05T23:01:36.993Z,62.92
2023-01-05T23:04:05.592Z,62.99
2023-01-05T23:06:32.832Z,63.62
2023-01-05T23:08:59.885Z,62.80
2023-01-05T23:11:32.507Z,62.22
2023-01-05T23:14:01.395Z,63.15
2023-01-05T23:16:28.744Z,63.37
2023-01-05T23:18:56.021Z,62.02
2023-01-05T23:21:24.307Z,62.37
2023-01-05T23:23:52.245Z,61.30
2023-01-05T23:26:19.461Z,63.26
2023-01-05T23:28:46.634Z,63.21
2023-01-05T23:31:14.828Z,64.61
2023-01-05T23:33:42.559Z,62.90
2023-01-05T23:36:10.500Z,62.93
2023-01-05T23:38:37.883Z,64.50
2023-01-05T23:41:08.348Z,63.29
2023-01-05T23:43:37.923Z,64.06
2023-01-05T23:46:08.183Z,64.88
2023-01-05T23:48:36.207Z,63.69
2023-01-05T23:51:04.671Z,63.55
2023-01-05T23:53:31.745Z,63.57
2023-01-05T23:56:06.946Z,61.71
2023-01-05T23:58:33.929Z,63.24
